Bookmark and Share
Track history (hours):
 

Belle Chasse

More information available from US FCC via Universal Licensing System and Coast Guard Vessel Documentation Center.

Last reported at 2014-Apr-18 15:32 UTC. Time now 2014-Apr-19 22:13 UTC.
Position N 29°44' W 091°33'.

Length 26 m; draft 3 m.

Type: Towing. MMSI: 367520550.

NotesDate/timePositionNaut miles runAvg speedWind from/ knotsBaromVisibWave heightAir tempDewpointWater temp
2014-Apr-18 15:32N 29°44' W 091°33'7 6.7
2014-Apr-18 14:25N 29°40' W 091°26'6 6.6
2014-Apr-18 13:33N 29°38' W 091°20'7 7.0
2014-Apr-18 12:33N 29°42' W 091°13'3 3.1
2014-Apr-18 11:33N 29°44' W 091°11'5 4.6
2014-Apr-18 10:34N 29°49' W 091°10'0 0.0
2014-Apr-18 09:31N 29°49' W 091°10'0 0.0
2014-Apr-18 08:31N 29°49' W 091°10'0 0.0
2014-Apr-18 07:33N 29°49' W 091°10'0 0.0
2014-Apr-18 06:31N 29°49' W 091°10'0 0.0
2014-Apr-18 05:33N 29°49' W 091°10'0 0.0
2014-Apr-18 04:15N 29°49' W 091°10'4 5.2
2014-Apr-18 03:32N 29°52' W 091°13'21 0.5
2014-Apr-16 10:25N 30°06' W 090°55'4 3.9
2014-Apr-16 09:29N 30°04' W 090°52'5 4.2
2014-Apr-16 08:17N 29°59' W 090°49'3 4.5
2014-Apr-16 07:33N 30°01' W 090°46'5 4.8
2014-Apr-16 06:33N 30°02' W 090°41'4 4.4
2014-Apr-16 05:34N 30°03' W 090°36'5 4.8
2014-Apr-16 04:34N 30°03' W 090°30'4 4.2
2014-Apr-16 03:33N 29°60' W 090°27'5 4.7
2014-Apr-16 02:32N 29°57' W 090°23'6 5.4
2014-Apr-16 01:28N 29°58' W 090°16'  

Dump ship's entire track history

sailing weather and tide predictions

Belle Chasse — WDG2912 — position and weather